Time;durP1;ratioP1;P1;durP2;ratioP2;P2;SDS_P1;SDS_P2;PMS_P1;PMS_P2;Temp;Humidity;BMP_temperature;BMP_pressure;BME280_temperature;BME280_humidity;BME280_pressure;Samples;Min_cycle;Max_cycle;Signal;HPM_P1;HPM_P2
2021/12/31 00:00:08;;;;;;;19.42;12.57;;;;;;;4.57;100.00;101123.03;5070855;28;20032;-75
2021/12/31 00:02:34;;;;;;;12.15;8.32;;;;;;;4.88;100.00;101155.94;5049779;28;20102;-74
2021/12/31 00:04:59;;;;;;;14.52;8.52;;;;;;;4.93;100.00;101169.94;5050536;28;20457;-74
2021/12/31 00:07:25;;;;;;;22.23;10.48;;;;;;;4.92;100.00;101149.38;5050732;28;20025;-74
2021/12/31 00:09:50;;;;;;;15.93;9.25;;;;;;;5.01;100.00;101165.38;5059303;28;20037;-74
2021/12/31 00:12:16;;;;;;;17.25;9.68;;;;;;;5.09;100.00;101168.47;5070415;28;20036;-74
2021/12/31 00:14:41;;;;;;;15.68;10.50;;;;;;;5.11;100.00;101162.69;5070125;28;20029;-75
2021/12/31 00:17:07;;;;;;;13.57;9.77;;;;;;;4.91;100.00;101122.00;5070627;28;20025;-73
2021/12/31 00:19:38;;;;;;;15.57;9.60;;;;;;;5.23;100.00;101167.75;5070507;28;20128;-75
2021/12/31 00:22:23;;;;;;;15.40;10.50;;;;;;;5.23;100.00;101170.31;5070204;28;20020;-74
2021/12/31 00:24:49;;;;;;;16.08;9.90;;;;;;;5.30;100.00;101167.41;5054987;28;20025;-74
2021/12/31 00:27:14;;;;;;;13.45;9.93;;;;;;;5.11;100.00;101134.53;5050123;28;20029;-73
2021/12/31 00:29:40;;;;;;;17.77;8.70;;;;;;;5.31;100.00;101165.75;5049637;28;20025;-74
2021/12/31 00:32:06;;;;;;;12.18;7.68;;;;;;;5.18;100.00;101153.75;5065087;28;20522;-74
2021/12/31 00:34:31;;;;;;;15.02;7.57;;;;;;;5.15;100.00;101156.09;5058887;28;20051;-74
2021/12/31 00:36:57;;;;;;;9.02;7.25;;;;;;;5.15;100.00;101162.09;5055824;28;20040;-72
2021/12/31 00:39:22;;;;;;;10.23;7.65;;;;;;;5.18;100.00;101156.31;5056500;28;20043;-74
2021/12/31 00:41:48;;;;;;;10.32;7.38;;;;;;;5.13;100.00;101167.91;5056876;28;20033;-73
2021/12/31 00:44:13;;;;;;;11.52;7.15;;;;;;;4.98;100.00;101167.72;5056133;28;20487;-74
2021/12/31 00:46:40;;;;;;;9.15;5.90;;;;;;;4.78;100.00;101150.94;5056001;28;20063;-71
2021/12/31 00:49:06;;;;;;;9.30;6.63;;;;;;;4.91;100.00;101176.63;5056163;28;20033;-74
2021/12/31 00:51:32;;;;;;;11.85;6.68;;;;;;;4.92;100.00;101173.28;5055374;28;20029;-73
2021/12/31 00:53:58;;;;;;;11.75;6.57;;;;;;;5.01;100.00;101168.81;5054288;28;20052;-73
2021/12/31 00:56:23;;;;;;;16.77;7.35;;;;;;;4.92;100.00;101137.47;5055884;28;20121;-74
2021/12/31 00:58:49;;;;;;;14.32;8.20;;;;;;;4.97;100.00;101155.69;5056317;28;20116;-72
2021/12/31 01:01:20;;;;;;;15.45;8.63;;;;;;;5.06;100.00;101170.81;5038689;28;20025;-72
2021/12/31 01:03:47;;;;;;;12.27;7.97;;;;;;;5.17;100.00;101159.63;5056429;28;20029;-74
2021/12/31 01:06:14;;;;;;;12.95;8.70;;;;;;;5.20;100.00;101154.75;5054632;28;20032;-72
2021/12/31 01:08:40;;;;;;;14.27;8.23;;;;;;;4.96;100.00;101124.09;5061781;28;20522;-72
2021/12/31 01:11:06;;;;;;;12.93;8.80;;;;;;;5.14;100.00;101141.53;5055625;28;20053;-74
2021/12/31 01:13:58;;;;;;;14.73;8.75;;;;;;;5.15;100.00;101151.88;5055864;28;20025;-73
2021/12/31 01:16:19;;;;;;;12.30;8.35;;;;;;;5.33;100.00;101172.75;5058844;28;20113;-72
2021/12/31 01:21:16;;;;;;;14.52;8.88;;;;;;;5.34;100.00;101158.25;5059920;28;20505;-75
2021/12/31 01:23:42;;;;;;;13.82;8.50;;;;;;;4.94;100.00;101151.25;5055168;28;20029;-74
2021/12/31 01:26:08;;;;;;;12.48;7.78;;;;;;;4.87;100.00;101133.69;5053550;28;20053;-72
2021/12/31 01:28:33;;;;;;;13.45;8.77;;;;;;;5.01;100.00;101140.66;5054952;28;20039;-73
2021/12/31 01:30:59;;;;;;;14.38;8.30;;;;;;;5.08;100.00;101172.69;5054909;28;20025;-71
2021/12/31 01:33:24;;;;;;;16.35;8.32;;;;;;;5.14;100.00;101167.13;5057735;28;20653;-73
2021/12/31 01:35:50;;;;;;;16.25;8.23;;;;;;;4.88;100.00;101119.22;5058799;28;20036;-72
2021/12/31 01:38:18;;;;;;;13.68;8.90;;;;;;;5.12;100.00;101171.22;5058602;28;20025;-73
2021/12/31 01:40:43;;;;;;;15.23;8.80;;;;;;;5.11;100.00;101177.13;5070119;28;20115;-71
2021/12/31 01:43:11;;;;;;;18.60;11.98;;;;;;;5.02;100.00;101180.84;5074100;28;20110;-73
2021/12/31 01:45:59;;;;;;;14.77;8.98;;;;;;;4.94;100.00;101178.53;5011224;28;20615;-73
2021/12/31 01:48:36;;;;;;;14.10;8.43;;;;;;;4.86;100.00;101171.19;5009771;28;20038;-75
2021/12/31 01:51:03;;;;;;;13.05;7.18;;;;;;;4.81;100.00;101163.94;5010022;28;20132;-75
2021/12/31 01:53:31;;;;;;;14.02;7.03;;;;;;;4.78;100.00;101163.75;5010204;28;20480;-76
2021/12/31 01:55:59;;;;;;;10.57;7.38;;;;;;;4.77;100.00;101144.03;5009769;28;20038;-74
2021/12/31 01:58:26;;;;;;;11.10;7.07;;;;;;;4.65;100.00;101128.72;5009819;28;20056;-74
2021/12/31 02:00:53;;;;;;;13.50;7.72;;;;;;;4.73;100.00;101132.69;5010024;28;20048;-74
2021/12/31 02:03:20;;;;;;;15.63;7.72;;;;;;;4.89;100.00;101138.94;5007458;28;20501;-71
2021/12/31 02:05:46;;;;;;;13.35;7.22;;;;;;;4.97;100.00;101145.44;5009989;28;20084;-78
2021/12/31 02:08:12;;;;;;;15.88;7.90;;;;;;;4.95;100.00;101124.88;5010647;28;20452;-72
2021/12/31 02:10:37;;;;;;;11.05;8.05;;;;;;;5.07;100.00;101136.75;5010311;28;20034;-75
2021/12/31 02:13:03;;;;;;;13.13;8.40;;;;;;;5.06;100.00;101124.72;5010197;28;20037;-75
2021/12/31 02:15:30;;;;;;;15.07;8.68;;;;;;;4.79;100.00;101084.53;5010100;28;20056;-75
2021/12/31 02:17:57;;;;;;;13.15;8.07;;;;;;;4.95;100.00;101127.44;5058313;28;20127;-75
2021/12/31 02:20:34;;;;;;;11.98;7.20;;;;;;;4.91;100.00;101128.03;5062583;28;20025;-74
2021/12/31 02:23:06;;;;;;;16.20;7.93;;;;;;;4.98;100.00;101137.88;5063047;28;20033;-74
2021/12/31 02:25:33;;;;;;;15.13;7.80;;;;;;;5.06;100.00;101127.28;5069014;28;20529;-76
2021/12/31 02:28:00;;;;;;;15.85;8.02;;;;;;;4.95;100.00;101119.75;5072673;28;20040;-76
2021/12/31 02:30:25;;;;;;;15.02;7.13;;;;;;;5.01;100.00;101121.88;5072548;28;20032;-76
2021/12/31 02:32:51;;;;;;;16.13;7.38;;;;;;;5.04;100.00;101129.75;5072373;28;20074;-75
2021/12/31 02:35:18;;;;;;;9.65;6.03;;;;;;;4.84;100.00;101141.16;5069169;28;20036;-74
2021/12/31 02:37:44;;;;;;;11.15;6.30;;;;;;;4.45;100.00;101132.38;5066903;28;20032;-76
2021/12/31 02:40:13;;;;;;;10.00;6.22;;;;;;;4.07;100.00;101098.16;5063903;28;20214;-77
2021/12/31 02:42:39;;;;;;;10.18;6.43;;;;;;;4.15;100.00;101132.84;5061195;28;20081;-76
2021/12/31 02:45:07;;;;;;;11.48;6.15;;;;;;;4.02;100.00;101128.47;5061523;28;20121;-76
2021/12/31 02:47:33;;;;;;;15.98;8.10;;;;;;;4.08;100.00;101133.16;5062691;28;20146;-75
2021/12/31 02:49:58;;;;;;;12.27;7.25;;;;;;;4.17;100.00;101120.16;5060118;28;20116;-77
2021/12/31 02:52:24;;;;;;;12.73;6.60;;;;;;;4.40;100.00;101131.16;5050456;28;20029;-76
2021/12/31 02:54:51;;;;;;;10.20;6.88;;;;;;;4.49;100.00;101137.84;5053348;28;20751;-77
2021/12/31 02:57:20;;;;;;;9.15;6.38;;;;;;;4.25;100.00;101121.63;5062381;28;20121;-75
2021/12/31 02:59:46;;;;;;;9.77;6.05;;;;;;;4.02;100.00;101141.25;5057293;28;20029;-74
2021/12/31 03:02:12;;;;;;;8.93;6.80;;;;;;;4.11;100.00;101145.28;5061865;28;20085;-77
2021/12/31 03:04:39;;;;;;;12.18;6.82;;;;;;;4.11;100.00;101147.81;5071582;28;20037;-76
2021/12/31 03:07:07;;;;;;;9.23;6.35;;;;;;;4.13;100.00;101156.50;5071647;28;20518;-76
2021/12/31 03:09:35;;;;;;;10.80;6.18;;;;;;;4.17;100.00;101154.28;5072219;28;20033;-74
2021/12/31 03:12:03;;;;;;;11.00;5.50;;;;;;;3.80;100.00;101103.03;5071521;28;20406;-78
2021/12/31 03:14:29;;;;;;;12.35;6.43;;;;;;;4.12;100.00;101154.72;5071777;28;20040;-78
2021/12/31 03:16:55;;;;;;;9.32;6.32;;;;;;;4.03;100.00;101160.91;5071588;28;20044;-74
2021/12/31 03:19:21;;;;;;;12.25;6.40;;;;;;;4.01;100.00;101159.94;5071861;28;20033;-75
2021/12/31 03:21:47;;;;;;;7.72;5.70;;;;;;;4.03;100.00;101140.47;5071481;28;20025;-75
2021/12/31 03:24:12;;;;;;;10.45;6.28;;;;;;;3.92;100.00;101155.81;5071408;28;20032;-78
2021/12/31 03:26:38;;;;;;;9.55;5.57;;;;;;;3.99;100.00;101161.47;5071463;28;20036;-75
2021/12/31 03:29:04;;;;;;;10.57;5.80;;;;;;;3.98;100.00;101164.81;5071523;28;20029;-74
2021/12/31 03:31:29;;;;;;;9.88;6.07;;;;;;;3.68;100.00;101158.28;5071124;28;20082;-74
2021/12/31 03:33:55;;;;;;;12.90;7.00;;;;;;;3.59;100.00;101157.56;5071003;28;20039;-75
2021/12/31 03:36:20;;;;;;;14.82;8.68;;;;;;;3.57;100.00;101157.47;5071500;28;20036;-73
2021/12/31 03:38:46;;;;;;;12.48;7.05;;;;;;;3.65;100.00;101166.63;5071304;28;20025;-74
2021/12/31 03:41:11;;;;;;;13.98;8.80;;;;;;;3.58;100.00;101159.25;5071292;28;20402;-75
2021/12/31 03:43:37;;;;;;;112.25;61.20;;;;;;;3.67;100.00;101174.38;5071032;28;20050;-74
2021/12/31 03:46:02;;;;;;;95.72;51.38;;;;;;;3.70;100.00;101172.94;5071196;28;20024;-75
2021/12/31 03:48:28;;;;;;;67.88;37.65;;;;;;;3.63;100.00;101186.03;5071228;28;20035;-76
2021/12/31 03:50:54;;;;;;;55.88;29.45;;;;;;;3.68;100.00;101189.81;5070819;28;20032;-75
2021/12/31 03:53:19;;;;;;;35.63;19.90;;;;;;;3.70;100.00;101206.16;5071035;28;20418;-75
2021/12/31 03:55:45;;;;;;;40.20;18.63;;;;;;;3.50;100.00;101198.59;5070508;28;20044;-75
2021/12/31 03:58:11;;;;;;;19.42;12.65;;;;;;;3.52;100.00;101208.16;5071054;28;20115;-74
2021/12/31 04:00:36;;;;;;;18.92;10.48;;;;;;;3.50;100.00;101208.81;5071162;28;20028;-75
2021/12/31 04:03:10;;;;;;;15.23;9.80;;;;;;;3.45;100.00;101223.81;5052925;28;20028;-74
2021/12/31 04:05:37;;;;;;;17.85;12.43;;;;;;;3.35;100.00;101219.66;5070746;28;20028;-75
2021/12/31 04:08:03;;;;;;;14.88;10.23;;;;;;;3.35;100.00;101227.31;5070732;28;20028;-71
2021/12/31 04:10:29;;;;;;;14.30;9.88;;;;;;;3.08;100.00;101168.22;5070056;28;20017;-78
2021/12/31 04:12:55;;;;;;;31.10;22.58;;;;;;;3.52;100.00;101230.25;5070580;28;20108;-77
2021/12/31 04:15:21;;;;;;;21.95;16.00;;;;;;;3.52;100.00;101210.72;5070908;28;20037;-75
2021/12/31 04:17:46;;;;;;;22.98;19.10;;;;;;;3.70;100.00;101231.69;5070605;28;20158;-78
2021/12/31 04:20:19;;;;;;;25.52;19.83;;;;;;;3.45;100.00;101179.50;5070479;28;20040;-76
2021/12/31 04:22:52;;;;;;;25.38;20.55;;;;;;;3.82;100.00;101223.19;5053957;28;20020;-75
2021/12/31 04:25:18;;;;;;;23.10;18.55;;;;;;;3.91;100.00;101234.09;5070644;28;20025;-74
2021/12/31 04:27:44;;;;;;;22.75;17.75;;;;;;;3.88;100.00;101233.88;5070775;28;20497;-74
2021/12/31 04:30:10;;;;;;;21.90;16.60;;;;;;;3.48;100.00;101190.84;5070592;28;20028;-74
2021/12/31 04:32:36;;;;;;;18.80;10.77;;;;;;;3.80;100.00;101228.19;5070289;28;20036;-74
2021/12/31 04:35:02;;;;;;;17.33;9.20;;;;;;;3.81;100.00;101235.03;5070600;28;20033;-76
2021/12/31 04:37:27;;;;;;;17.65;8.90;;;;;;;3.70;100.00;101226.59;5070778;28;20024;-74
2021/12/31 04:39:53;;;;;;;17.60;11.32;;;;;;;3.58;100.00;101207.75;5070353;28;20044;-73
2021/12/31 04:42:19;;;;;;;23.80;12.20;;;;;;;3.70;100.00;101231.69;5031479;28;20036;-70
2021/12/31 04:44:44;;;;;;;18.00;10.63;;;;;;;3.60;100.00;101220.63;5057850;28;20039;-74
2021/12/31 04:47:10;;;;;;;20.77;12.48;;;;;;;3.72;100.00;101258.22;5066684;28;20055;-74
2021/12/31 04:49:35;;;;;;;15.32;9.02;;;;;;;3.73;100.00;101243.81;5052537;28;20028;-74
2021/12/31 04:52:01;;;;;;;17.42;9.88;;;;;;;3.70;100.00;101256.31;5070345;28;20039;-74
2021/12/31 04:54:26;;;;;;;15.57;9.50;;;;;;;3.56;100.00;101257.81;5070127;28;20040;-72
2021/12/31 04:56:53;;;;;;;15.43;8.23;;;;;;;3.25;100.00;101196.72;5069963;28;20063;-71
2021/12/31 04:59:20;;;;;;;19.52;8.93;;;;;;;3.60;100.00;101254.75;5034425;28;20045;-74
2021/12/31 05:01:47;;;;;;;19.15;8.73;;;;;;;3.44;100.00;101261.94;5069876;28;20024;-74
2021/12/31 05:04:13;;;;;;;17.40;8.73;;;;;;;3.42;100.00;101259.28;5033591;28;20513;-75
2021/12/31 05:06:38;;;;;;;16.60;9.02;;;;;;;3.30;100.00;101269.44;5059533;28;20037;-73
2021/12/31 05:09:04;;;;;;;32.03;11.50;;;;;;;3.08;100.00;101252.41;5059331;28;20029;-76
2021/12/31 05:11:29;;;;;;;24.13;11.07;;;;;;;2.82;100.00;101234.16;5058010;28;20072;-74
2021/12/31 05:13:55;;;;;;;20.98;9.15;;;;;;;2.85;100.00;101260.75;5057950;28;20483;-73
2021/12/31 05:16:20;;;;;;;17.92;8.27;;;;;;;2.94;100.00;101270.84;5054448;28;20056;-74
2021/12/31 05:18:45;;;;;;;15.50;11.60;;;;;;;2.50;100.00;101222.22;5058503;28;20490;-74
2021/12/31 05:21:11;;;;;;;20.48;11.48;;;;;;;2.56;100.00;101277.13;5060978;28;20081;-74
2021/12/31 05:23:36;;;;;;;20.10;11.45;;;;;;;2.64;100.00;101269.22;5063044;28;20111;-75
2021/12/31 05:26:02;;;;;;;22.33;13.07;;;;;;;2.30;100.00;101225.69;5067721;28;20047;-76
2021/12/31 05:28:27;;;;;;;22.33;12.45;;;;;;;2.61;100.00;101289.38;5062212;28;20502;-73
2021/12/31 05:30:53;;;;;;;18.33;10.98;;;;;;;2.21;100.00;101247.09;5063235;28;20031;-74
2021/12/31 05:33:18;;;;;;;13.93;9.80;;;;;;;2.22;100.00;101288.75;5067669;28;20109;-73
2021/12/31 05:35:44;;;;;;;14.15;9.60;;;;;;;2.17;100.00;101295.09;5073697;28;20431;-74
2021/12/31 05:38:09;;;;;;;17.67;9.93;;;;;;;2.10;100.00;101291.16;5072954;28;20850;-74
2021/12/31 05:40:35;;;;;;;14.77;10.27;;;;;;;2.20;100.00;101301.34;5061445;28;20526;-75
2021/12/31 05:43:01;;;;;;;17.10;9.90;;;;;;;2.24;100.00;101294.84;5019826;28;20107;-74
2021/12/31 05:45:27;;;;;;;15.43;10.02;;;;;;;2.31;100.00;101302.25;5062923;28;20495;-75
2021/12/31 05:47:53;;;;;;;15.68;9.30;;;;;;;2.18;100.00;101309.63;5061999;28;20040;-75
2021/12/31 05:50:27;;;;;;;14.77;9.63;;;;;;;2.06;100.00;101312.94;5069924;28;20028;-74
2021/12/31 05:52:57;;;;;;;22.17;12.55;;;;;;;1.80;100.00;101323.44;5073304;28;20044;-74
2021/12/31 05:55:22;;;;;;;19.17;9.15;;;;;;;1.62;100.00;101325.31;5065338;28;20510;-76
2021/12/31 05:57:49;;;;;;;12.55;9.07;;;;;;;1.60;100.00;101332.78;5062700;28;20525;-73
2021/12/31 06:00:15;;;;;;;16.00;12.20;;;;;;;1.57;100.00;101304.53;5049284;28;20044;-75
2021/12/31 06:02:41;;;;;;;20.08;13.20;;;;;;;1.70;100.00;101316.66;5070313;28;20025;-75
2021/12/31 06:05:07;;;;;;;19.85;10.40;;;;;;;1.64;100.00;101308.50;5072561;28;20039;-75
2021/12/31 06:07:32;;;;;;;16.75;8.88;;;;;;;1.89;100.00;101331.84;5071951;28;20039;-74
2021/12/31 06:09:57;;;;;;;32.60;13.60;;;;;;;2.01;100.00;101338.78;5072066;28;20405;-75
2021/12/31 06:12:24;;;;;;;20.98;12.27;;;;;;;2.15;100.00;101329.75;5071506;28;20029;-75
2021/12/31 06:14:50;;;;;;;19.05;10.73;;;;;;;2.30;100.00;101322.53;5071654;28;20032;-74
2021/12/31 06:17:22;;;;;;;15.68;9.10;;;;;;;2.42;100.00;101316.78;5063368;28;20655;-74
2021/12/31 06:19:47;;;;;;;12.70;8.18;;;;;;;2.58;100.00;101302.78;5062584;28;20025;-75
2021/12/31 06:22:13;;;;;;;13.10;7.43;;;;;;;2.72;100.00;101304.78;5050548;28;20044;-74
2021/12/31 06:24:39;;;;;;;13.63;7.18;;;;;;;2.82;100.00;101301.31;5060468;28;20059;-74
2021/12/31 06:27:04;;;;;;;11.80;6.78;;;;;;;2.73;100.00;101314.22;5067858;28;20454;-74
2021/12/31 06:29:30;;;;;;;16.15;9.00;;;;;;;2.71;100.00;101313.19;5072773;28;20058;-74
2021/12/31 06:31:56;;;;;;;20.33;14.65;;;;;;;2.70;100.00;101311.41;5069238;28;20532;-74
2021/12/31 06:34:21;;;;;;;27.50;15.60;;;;;;;2.76;100.00;101331.44;5061080;28;20524;-73
2021/12/31 06:36:46;;;;;;;22.40;13.30;;;;;;;2.73;100.00;101321.00;5063098;28;20020;-74
2021/12/31 06:39:12;;;;;;;19.23;11.18;;;;;;;2.86;100.00;101325.44;5061131;28;20078;-73
2021/12/31 06:41:37;;;;;;;15.30;8.80;;;;;;;2.92;100.00;101308.06;5066279;28;20091;-74
2021/12/31 06:44:03;;;;;;;13.52;8.90;;;;;;;3.11;100.00;101338.50;5067903;28;20032;-75
2021/12/31 06:46:28;;;;;;;16.17;7.45;;;;;;;3.18;100.00;101329.72;5061445;28;20028;-77
2021/12/31 06:48:54;;;;;;;13.52;6.93;;;;;;;3.28;100.00;101309.25;5066336;28;20035;-80
2021/12/31 06:51:19;;;;;;;19.20;7.35;;;;;;;3.35;100.00;101305.50;5071985;28;20029;-77
2021/12/31 06:53:45;;;;;;;18.25;6.97;;;;;;;3.36;100.00;101305.63;5070445;28;20036;-76
2021/12/31 06:56:10;;;;;;;15.00;7.80;;;;;;;3.51;100.00;101322.94;5072059;28;20060;-77
2021/12/31 06:58:37;;;;;;;16.70;8.32;;;;;;;3.30;100.00;101288.94;5072171;28;20040;-76
2021/12/31 07:01:03;;;;;;;12.00;7.35;;;;;;;3.48;100.00;101332.94;5072148;28;20033;-77
2021/12/31 07:03:28;;;;;;;11.40;7.13;;;;;;;3.43;100.00;101339.28;5054028;28;20452;-76
2021/12/31 07:05:54;;;;;;;12.82;7.13;;;;;;;3.34;100.00;101331.81;5072006;28;20035;-78
2021/12/31 07:08:19;;;;;;;20.00;9.07;;;;;;;3.31;100.00;101363.06;5071720;28;20028;-76
2021/12/31 07:10:45;;;;;;;16.15;9.15;;;;;;;3.11;100.00;101340.19;5071442;28;20034;-77
2021/12/31 07:13:11;;;;;;;13.90;8.95;;;;;;;3.24;100.00;101340.41;5071851;28;20055;-76
2021/12/31 07:15:41;;;;;;;16.98;10.13;;;;;;;3.36;100.00;101343.03;5071629;28;20028;-76
2021/12/31 07:18:07;;;;;;;20.92;12.02;;;;;;;3.32;100.00;101357.22;5071852;28;20024;-76
2021/12/31 07:20:33;;;;;;;20.40;11.38;;;;;;;3.36;100.00;101355.78;5071456;28;20058;-77
2021/12/31 07:23:07;;;;;;;21.90;13.30;;;;;;;3.38;100.00;101352.59;5071368;28;20017;-74
2021/12/31 07:25:32;;;;;;;28.60;13.98;;;;;;;3.30;100.00;101337.44;5071644;28;20051;-74
2021/12/31 07:27:58;;;;;;;24.08;11.45;;;;;;;3.51;100.00;101368.91;5071694;28;20541;-78
2021/12/31 07:30:23;;;;;;;24.27;10.88;;;;;;;3.52;100.00;101366.44;5071498;28;20020;-76
2021/12/31 07:32:49;;;;;;;22.48;11.63;;;;;;;3.47;100.00;101336.25;5071303;28;20037;-78
2021/12/31 07:35:14;;;;;;;24.20;12.55;;;;;;;3.69;100.00;101360.16;5071357;28;20452;-77
2021/12/31 07:37:40;;;;;;;19.58;12.77;;;;;;;3.71;100.00;101342.38;5071130;28;20066;-78
2021/12/31 07:40:07;;;;;;;30.67;17.48;;;;;;;3.69;100.00;101318.41;5069824;28;20028;-78
2021/12/31 07:42:33;;;;;;;33.45;22.25;;;;;;;3.84;100.00;101350.25;5071225;28;20028;-79
2021/12/31 07:44:58;;;;;;;35.72;23.33;;;;;;;4.02;100.00;101378.88;5052520;28;20036;-76
2021/12/31 07:47:24;;;;;;;35.47;24.80;;;;;;;3.95;100.00;101384.28;5071027;28;20486;-78
2021/12/31 07:49:49;;;;;;;35.65;23.17;;;;;;;4.09;100.00;101403.25;5070795;28;20025;-77
2021/12/31 07:52:15;;;;;;;41.47;20.05;;;;;;;4.10;100.00;101384.59;5070771;28;20430;-77
2021/12/31 07:54:40;;;;;;;28.42;14.82;;;;;;;4.21;100.00;101378.66;5070486;28;20020;-77
2021/12/31 07:57:06;;;;;;;26.50;9.55;;;;;;;4.00;100.00;101334.44;5070899;28;20086;-78
2021/12/31 07:59:32;;;;;;;25.85;9.20;;;;;;;4.35;100.00;101381.38;5070931;28;20074;-78
2021/12/31 08:01:57;;;;;;;24.95;8.80;;;;;;;4.43;100.00;101377.72;5064373;28;20039;-78
2021/12/31 08:04:22;;;;;;;23.13;8.45;;;;;;;4.48;100.00;101384.09;5046551;28;20032;-78
2021/12/31 08:06:48;;;;;;;26.52;9.35;;;;;;;4.51;100.00;101396.22;5063235;28;20036;-78
2021/12/31 08:09:13;;;;;;;18.15;9.52;;;;;;;4.46;100.00;101371.97;5062260;28;20032;-78
2021/12/31 08:11:39;;;;;;;18.13;8.65;;;;;;;4.63;100.00;101396.25;5060628;28;20478;-77
2021/12/31 08:14:05;;;;;;;20.80;7.38;;;;;;;4.52;100.00;101377.53;5051453;28;20079;-74
2021/12/31 08:16:31;;;;;;;16.45;7.72;;;;;;;4.63;100.00;101376.69;5059200;28;20025;-76
2021/12/31 08:18:56;;;;;;;13.18;7.53;;;;;;;4.62;100.00;101390.28;5051336;28;20132;-76
2021/12/31 08:21:21;;;;;;;16.38;9.70;;;;;;;4.53;100.00;101389.56;5060504;28;20029;-75
2021/12/31 08:23:48;;;;;;;19.58;8.40;;;;;;;4.38;100.00;101341.59;5061084;28;20035;-75
2021/12/31 08:26:13;;;;;;;19.92;10.35;;;;;;;4.79;100.00;101370.19;5061965;28;20040;-77
2021/12/31 08:28:39;;;;;;;16.35;8.38;;;;;;;4.83;100.00;101361.94;5061899;28;20029;-76
2021/12/31 08:31:04;;;;;;;13.55;7.28;;;;;;;4.81;100.00;101361.84;5060062;28;20040;-76
2021/12/31 08:33:30;;;;;;;24.15;14.70;;;;;;;4.85;100.00;101373.19;5060903;28;20120;-74
2021/12/31 08:35:55;;;;;;;15.93;8.82;;;;;;;4.91;100.00;101370.19;5059152;28;20052;-76
2021/12/31 08:38:22;;;;;;;15.48;8.55;;;;;;;4.92;100.00;101356.63;5060175;28;20020;-76
2021/12/31 08:40:47;;;;;;;16.75;8.60;;;;;;;4.99;100.00;101352.06;5060490;28;20021;-76
2021/12/31 08:43:13;;;;;;;31.85;12.60;;;;;;;5.02;100.00;101344.63;5066910;28;20025;-76
2021/12/31 08:45:38;;;;;;;41.35;9.65;;;;;;;5.04;100.00;101319.13;5056714;28;20033;-75
2021/12/31 08:48:04;;;;;;;21.75;9.63;;;;;;;5.12;100.00;101335.03;5061489;28;20483;-74
2021/12/31 08:50:33;;;;;;;29.13;9.05;;;;;;;5.21;100.00;101345.06;5047573;28;20372;-74
2021/12/31 08:52:59;;;;;;;29.65;9.85;;;;;;;5.25;100.00;101345.41;5060521;28;20031;-76
2021/12/31 08:55:24;;;;;;;35.13;9.98;;;;;;;5.30;100.00;101348.31;5059572;28;20407;-76
2021/12/31 08:57:50;;;;;;;44.35;11.80;;;;;;;5.41;100.00;101351.63;5064036;28;20101;-74
2021/12/31 09:00:16;;;;;;;38.28;11.95;;;;;;;5.53;100.00;101344.81;5070065;28;20036;-75
2021/12/31 09:02:42;;;;;;;41.80;10.63;;;;;;;5.61;100.00;101332.56;5038491;28;20174;-74
2021/12/31 09:05:09;;;;;;;30.85;8.02;;;;;;;5.65;100.00;101340.56;5038400;28;20040;-74
2021/12/31 09:07:35;;;;;;;33.70;8.93;;;;;;;5.69;100.00;101340.78;5073425;28;20089;-76
2021/12/31 09:10:01;;;;;;;36.13;10.73;;;;;;;5.74;100.00;101336.88;5073538;28;20028;-75
2021/12/31 09:12:27;;;;;;;32.92;10.40;;;;;;;5.68;100.00;101319.41;5073634;28;20104;-74
2021/12/31 09:14:52;;;;;;;29.83;9.43;;;;;;;5.75;100.00;101302.81;5073614;28;20103;-75
2021/12/31 09:17:18;;;;;;;36.47;10.25;;;;;;;5.90;100.00;101305.53;5073539;28;20028;-74
2021/12/31 09:19:44;;;;;;;24.85;11.10;;;;;;;5.99;100.00;101313.88;5064183;28;20028;-78
2021/12/31 09:22:09;;;;;;;19.95;9.02;;;;;;;6.01;100.00;101299.50;5062799;28;20449;-75
2021/12/31 09:24:36;;;;;;;22.60;8.48;;;;;;;6.12;100.00;101303.69;5063112;28;20470;-77
2021/12/31 09:27:01;;;;;;;17.20;6.53;;;;;;;6.07;100.00;101282.00;5064249;28;20509;-77
2021/12/31 09:29:27;;;;;;;13.70;6.68;;;;;;;6.26;100.00;101299.50;5067557;28;20025;-77
2021/12/31 09:31:53;;;;;;;15.68;6.30;;;;;;;6.30;100.00;101280.97;5051943;28;20117;-75
2021/12/31 09:34:19;;;;;;;22.10;9.93;;;;;;;6.50;100.00;101285.66;5069911;28;20125;-74
2021/12/31 09:36:45;;;;;;;16.05;5.90;;;;;;;6.61;100.00;101284.69;5072909;28;20474;-76
2021/12/31 09:39:11;;;;;;;18.73;6.30;;;;;;;6.55;100.00;101256.94;5070245;28;20402;-74
2021/12/31 09:41:36;;;;;;;13.18;6.45;;;;;;;6.67;100.00;101269.72;5065283;28;20021;-76
2021/12/31 09:44:02;;;;;;;13.23;6.32;;;;;;;6.75;100.00;101254.81;5073158;28;20079;-74
2021/12/31 09:46:28;;;;;;;18.05;6.20;;;;;;;6.76;100.00;101229.22;5069656;28;20079;-74
2021/12/31 09:48:53;;;;;;;11.63;7.32;;;;;;;7.03;100.00;101248.88;5062194;28;20557;-77
2021/12/31 09:51:19;;;;;;;10.18;5.90;;;;;;;7.10;100.00;101230.50;5062769;28;20035;-76
2021/12/31 09:53:45;;;;;;;8.75;5.53;;;;;;;7.01;100.00;101200.00;5064056;28;20068;-75
2021/12/31 09:56:13;;;;;;;8.57;5.13;;;;;;;7.02;100.00;101173.53;5061389;28;20045;-76
2021/12/31 09:58:39;;;;;;;12.20;6.40;;;;;;;7.48;100.00;101221.75;5062967;28;20116;-77
2021/12/31 10:01:08;;;;;;;8.57;6.13;;;;;;;7.48;100.00;101187.44;5063019;28;20090;-75
2021/12/31 10:03:34;;;;;;;9.05;6.20;;;;;;;7.79;100.00;101210.75;5064949;28;20054;-77
2021/12/31 10:06:17;;;;;;;11.15;6.57;;;;;;;7.93;100.00;101209.88;5063852;28;20146;-74
2021/12/31 10:08:45;;;;;;;12.25;6.93;;;;;;;7.93;100.00;101207.31;5067327;28;20044;-74
2021/12/31 10:11:20;;;;;;;11.07;7.07;;;;;;;7.98;100.00;101212.72;5065231;28;20024;-78
2021/12/31 10:13:51;;;;;;;12.00;7.10;;;;;;;8.03;100.00;101206.19;5061527;28;20053;-74
2021/12/31 10:16:36;;;;;;;11.80;8.10;;;;;;;8.12;100.00;101200.69;5062183;28;20032;-78
2021/12/31 10:19:11;;;;;;;11.73;7.82;;;;;;;8.16;100.00;101187.22;5063492;28;20043;-75
2021/12/31 10:21:49;;;;;;;10.55;7.45;;;;;;;8.30;100.00;101181.97;5062783;28;20025;-75
2021/12/31 10:24:35;;;;;;;13.05;7.18;;;;;;;8.30;100.00;101179.41;5062215;28;20017;-74
2021/12/31 10:27:14;;;;;;;11.70;7.18;;;;;;;8.01;100.00;101129.75;5063165;28;20021;-76
2021/12/31 10:30:18;;;;;;;11.95;8.57;;;;;;;8.46;100.00;101164.09;5063086;28;20112;-76
2021/12/31 10:32:46;;;;;;;11.05;7.45;;;;;;;8.40;100.00;101167.16;4967469;28;20030;-80
2021/12/31 10:35:22;;;;;;;12.57;8.45;;;;;;;8.43;100.00;101171.59;4970877;28;20082;-77
2021/12/31 10:38:02;;;;;;;14.48;7.93;;;;;;;8.23;100.00;101137.88;4970864;28;20097;-78
2021/12/31 10:40:43;;;;;;;11.50;8.35;;;;;;;8.55;100.00;101177.47;4970154;28;20076;-77
2021/12/31 10:43:21;;;;;;;11.25;8.13;;;;;;;8.63;100.00;101157.31;4967163;28;20043;-77
2021/12/31 10:46:07;;;;;;;12.77;7.95;;;;;;;8.60;100.00;101139.13;4970826;28;20054;-77
2021/12/31 10:48:50;;;;;;;10.93;7.65;;;;;;;8.43;100.00;101100.41;4969290;28;20065;-73
2021/12/31 10:51:35;;;;;;;12.20;9.00;;;;;;;8.67;100.00;101142.91;4969510;28;20600;-78
2021/12/31 10:54:31;;;;;;;12.95;9.30;;;;;;;8.68;100.00;101139.53;4971115;28;20043;-74
2021/12/31 10:56:57;;;;;;;12.73;10.13;;;;;;;8.68;100.00;101152.41;4971104;28;20530;-79
2021/12/31 10:59:23;;;;;;;15.30;10.55;;;;;;;8.72;100.00;101144.06;4965732;28;20508;-74
2021/12/31 11:01:49;;;;;;;15.77;10.57;;;;;;;8.47;100.00;101098.94;4969966;28;20042;-74
2021/12/31 11:04:17;;;;;;;12.95;9.80;;;;;;;8.64;100.00;101127.31;4969331;28;20042;-78
2021/12/31 11:06:44;;;;;;;17.73;11.88;;;;;;;8.60;100.00;101117.63;5018344;28;20407;-75
2021/12/31 11:09:13;;;;;;;14.73;11.00;;;;;;;8.52;100.00;101083.75;5060658;28;20025;-79
2021/12/31 11:11:42;;;;;;;13.85;10.85;;;;;;;8.84;100.00;101111.25;5068591;28;20454;-77
2021/12/31 11:14:09;;;;;;;15.65;11.32;;;;;;;9.00;100.00;101122.41;5069895;28;20076;-78
2021/12/31 11:16:38;;;;;;;16.27;11.00;;;;;;;9.05;100.00;101111.53;5061631;28;20400;-77